Time,TemperatureF,DewpointF,PressureIn,WindDirection,WindDirectionDegrees,WindSpeedMPH,WindSpeedGustMPH,Humidity,HourlyPrecipIn,Conditions,Clouds,dailyrainin,SoftwareType,DateUTC
2013-02-26 00:01:00,34.0,11.0,29.92,SSE,148,15.0,22.0,38,-99.99,,,0.00,,2013-02-26 07:01:00,
2013-02-26 00:11:00,33.0,11.0,29.92,SSE,151,6.0,23.0,40,-99.99,,,0.00,,2013-02-26 07:11:00,
2013-02-26 00:22:00,33.0,11.0,29.92,SSE,151,6.0,23.0,40,-99.99,,,0.00,,2013-02-26 07:22:00,
2013-02-26 00:31:00,33.0,11.0,29.91,SE,133,6.0,14.0,40,-99.99,,,0.00,,2013-02-26 07:31:00,
2013-02-26 00:41:00,32.0,11.0,29.92,ESE,108,11.0,17.0,40,-99.99,,,0.00,,2013-02-26 07:41:00,
2013-02-26 00:52:00,33.0,10.0,29.89,ESE,122,5.0,17.0,38,-99.99,,,0.00,,2013-02-26 07:52:00,
2013-02-26 01:01:00,33.0,10.0,29.89,ESE,122,5.0,17.0,38,-99.99,,,0.00,,2013-02-26 08:01:00,
2013-02-26 01:11:00,34.0,9.0,29.88,NW,308,9.0,17.0,34,-99.99,,,0.00,,2013-02-26 08:11:00,
2013-02-26 01:41:00,41.0,5.0,29.81,West,276,12.0,31.0,22,-99.99,,,0.00,,2013-02-26 08:41:00,
2013-02-26 01:52:00,41.0,5.0,29.81,West,276,12.0,31.0,22,-99.99,,,0.00,,2013-02-26 08:52:00,
2013-02-26 02:01:00,41.0,5.0,29.79,West,271,21.0,36.0,22,-99.99,,,0.00,,2013-02-26 09:01:00,
2013-02-26 02:11:00,41.0,5.0,29.78,WSW,244,25.0,39.0,22,-99.99,,,0.00,,2013-02-26 09:11:00,
2013-02-26 02:21:00,41.0,5.0,29.78,WSW,244,25.0,39.0,22,-99.99,,,0.00,,2013-02-26 09:21:00,
2013-02-26 02:31:00,41.0,4.0,29.80,WNW,287,14.0,30.0,21,-99.99,,,0.00,,2013-02-26 09:31:00,
2013-02-26 02:43:00,41.0,4.0,29.79,WSW,258,22.0,33.0,21,-99.99,,,0.00,,2013-02-26 09:43:00,
2013-02-26 02:52:00,41.0,4.0,29.79,WSW,258,22.0,33.0,21,-99.99,,,0.00,,2013-02-26 09:52:00,
2013-02-26 03:01:00,41.0,5.0,29.77,West,272,17.0,33.0,22,-99.99,,,0.00,,2013-02-26 10:01:00,
2013-02-26 03:11:00,41.0,5.0,29.78,West,268,24.0,35.0,22,-99.99,,,0.00,,2013-02-26 10:11:00,
2013-02-26 03:21:00,41.0,5.0,29.78,West,268,24.0,35.0,22,-99.99,,,0.00,,2013-02-26 10:21:00,
2013-02-26 03:31:00,41.0,5.0,29.77,WNW,292,28.0,35.0,22,-99.99,,,0.00,,2013-02-26 10:31:00,
2013-02-26 03:41:00,39.0,6.0,29.80,NW,313,15.0,35.0,25,-99.99,,,0.00,,2013-02-26 10:41:00,
2013-02-26 03:52:00,39.0,6.0,29.80,NW,313,15.0,35.0,25,-99.99,,,0.00,,2013-02-26 10:52:00,
2013-02-26 04:01:00,38.0,6.0,29.79,NNW,339,18.0,29.0,26,-99.99,,,0.00,,2013-02-26 11:01:00,
2013-02-26 04:11:00,38.0,7.0,29.80,NE,41,7.0,31.0,27,-99.99,,,0.00,,2013-02-26 11:11:00,
2013-02-26 04:21:00,38.0,7.0,29.80,NE,41,7.0,31.0,27,-99.99,,,0.00,,2013-02-26 11:21:00,
2013-02-26 04:31:00,36.0,6.0,29.81,SSE,155,3.0,24.0,28,-99.99,,,0.00,,2013-02-26 11:31:00,
2013-02-26 04:41:00,32.0,7.0,29.84,NW,315,2.0,24.0,33,-99.99,,,0.00,,2013-02-26 11:41:00,
2013-02-26 04:52:00,31.0,7.0,29.86,NE,53,7.0,7.0,36,-99.99,,,0.00,,2013-02-26 11:52:00,
2013-02-26 05:01:00,31.0,7.0,29.86,NE,53,7.0,7.0,36,-99.99,,,0.00,,2013-02-26 12:01:00,
2013-02-26 05:11:00,30.0,7.0,29.85,East,90,0.0,9.0,37,-99.99,,,0.00,,2013-02-26 12:11:00,
2013-02-26 05:22:00,30.0,7.0,29.85,East,90,0.0,9.0,37,-99.99,,,0.00,,2013-02-26 12:22:00,
2013-02-26 05:32:00,29.0,7.0,29.87,East,90,2.0,5.0,40,-99.99,,,0.00,,2013-02-26 12:32:00,
2013-02-26 05:42:00,28.0,8.0,29.87,North,360,5.0,9.0,41,-99.99,,,0.00,,2013-02-26 12:42:00,
2013-02-26 05:53:00,28.0,8.0,29.87,North,360,5.0,9.0,41,-99.99,,,0.00,,2013-02-26 12:53:00,
2013-02-26 06:01:00,28.0,8.0,29.92,WNW,303,2.0,12.0,42,-99.99,,,0.00,,2013-02-26 13:01:00,
2013-02-26 06:11:00,28.0,8.0,29.91,NNE,16,0.0,12.0,42,-99.99,,,0.00,,2013-02-26 13:11:00,
2013-02-26 06:21:00,28.0,8.0,29.91,NNE,16,0.0,12.0,42,-99.99,,,0.00,,2013-02-26 13:21:00,
2013-02-26 06:31:00,27.0,8.0,29.91,NNE,16,3.0,6.0,43,-99.99,,,0.00,,2013-02-26 13:31:00,
2013-02-26 06:42:00,26.0,8.0,29.94,NNE,16,3.0,6.0,45,-99.99,,,0.00,,2013-02-26 13:42:00,
2013-02-26 06:52:00,26.0,8.0,29.94,North,360,2.0,6.0,45,-99.99,,,0.00,,2013-02-26 13:52:00,
2013-02-26 07:01:00,26.0,8.0,29.94,North,360,2.0,6.0,45,-99.99,,,0.00,,2013-02-26 14:01:00,
2013-02-26 07:11:00,26.0,8.0,29.94,NE,44,3.0,8.0,47,-99.99,,,0.00,,2013-02-26 14:11:00,
2013-02-26 07:21:00,26.0,8.0,29.94,NE,44,3.0,8.0,47,-99.99,,,0.00,,2013-02-26 14:21:00,
2013-02-26 07:30:00,26.0,9.0,29.96,NNW,327,0.0,9.0,47,-99.99,,,0.00,,2013-02-26 14:30:00,
2013-02-26 07:31:00,25.0,8.0,29.96,NE,44,2.0,5.0,49,-99.99,,,0.00,,2013-02-26 14:31:00,
2013-02-26 07:42:00,25.0,8.0,29.97,NE,40,1.0,10.0,48,-99.99,,,0.00,,2013-02-26 14:42:00,
2013-02-26 07:52:00,25.0,8.0,29.97,NE,40,1.0,10.0,48,-99.99,,,0.00,,2013-02-26 14:52:00,
2013-02-26 08:01:00,25.0,9.0,29.96,NNW,327,0.0,9.0,48,-99.99,,,-99.99,,2013-02-26 15:01:00,
2013-02-26 08:11:00,26.0,9.0,29.96,NNW,327,0.0,9.0,47,-99.99,,,0.00,,2013-02-26 15:11:00,
2013-02-26 08:21:00,26.0,9.0,29.96,NNW,327,0.0,9.0,47,-99.99,,,0.00,,2013-02-26 15:21:00,
2013-02-26 12:11:00,36.0,3.0,30.03,NNW,338,14.0,24.0,25,-99.99,,,0.00,,2013-02-26 19:11:00,
2013-02-26 12:22:00,36.0,3.0,30.03,NNW,338,14.0,24.0,25,-99.99,,,0.00,,2013-02-26 19:22:00,
2013-02-26 12:30:00,36.0,8.0,29.96,NNE,13,8.0,26.0,30,-99.99,,,0.00,,2013-02-26 19:30:00,
2013-02-26 12:31:00,36.0,4.0,30.03,NNW,339,17.0,20.0,25,-99.99,,,0.00,,2013-02-26 19:31:00,
2013-02-26 12:41:00,37.0,4.0,30.02,NW,319,21.0,28.0,25,-99.99,,,0.00,,2013-02-26 19:41:00,
2013-02-26 12:52:00,37.0,4.0,30.02,NW,319,21.0,28.0,25,-99.99,,,0.00,,2013-02-26 19:52:00,
2013-02-26 13:01:00,37.0,5.0,29.94,NNW,330,6.0,26.0,26,-99.99,,,0.00,,2013-02-26 20:01:00,
2013-02-26 13:11:00,36.0,8.0,29.96,NNE,13,8.0,26.0,30,-99.99,,,0.00,,2013-02-26 20:11:00,
2013-02-26 13:21:00,36.0,8.0,29.96,NNE,13,8.0,26.0,30,-99.99,,,0.00,,2013-02-26 20:21:00,
2013-02-26 14:31:00,37.0,8.0,29.95,NNE,28,10.0,17.0,30,-99.99,,,0.00,,2013-02-26 21:31:00,
2013-02-26 14:41:00,37.0,8.0,29.95,NNE,28,10.0,17.0,30,-99.99,,,0.00,,2013-02-26 21:41:00,
2013-02-26 15:01:00,38.0,10.0,29.95,North,9,4.0,18.0,31,-99.99,,,0.00,,2013-02-26 22:01:00,
2013-02-26 15:11:00,38.0,9.0,29.96,NNW,327,12.0,18.0,30,-99.99,,,0.00,,2013-02-26 22:11:00,
2013-02-26 15:21:00,38.0,9.0,29.96,NNW,327,12.0,18.0,30,-99.99,,,0.00,,2013-02-26 22:21:00,
2013-02-26 15:31:00,38.0,9.0,29.95,North,360,4.0,16.0,30,-99.99,,,0.00,,2013-02-26 22:31:00,
2013-02-26 15:41:00,37.0,9.0,29.95,North,355,7.0,16.0,30,-99.99,,,0.00,,2013-02-26 22:41:00,
2013-02-26 15:52:00,37.0,9.0,29.95,North,355,7.0,16.0,30,-99.99,,,0.00,,2013-02-26 22:52:00,
2013-02-26 16:01:00,38.0,9.0,30.00,NNE,32,5.0,20.0,30,-99.99,,,-99.99,,2013-02-26 23:01:00,
2013-02-26 16:11:00,38.0,9.0,30.00,NNE,32,5.0,20.0,30,-99.99,,,-99.99,,2013-02-26 23:11:00,
2013-02-26 16:52:00,38.0,9.0,30.03,NNW,342,14.0,17.0,30,-99.99,,,-99.99,,2013-02-26 23:52:00,
2013-02-26 17:01:00,38.0,9.0,30.03,NNW,342,14.0,17.0,30,-99.99,,,-99.99,,2013-02-27 00:01:00,
2013-02-26 17:11:00,37.0,8.0,30.05,North,355,5.0,21.0,29,-99.99,,,-99.99,,2013-02-27 00:11:00,
2013-02-26 17:21:00,37.0,8.0,30.05,North,355,5.0,21.0,29,-99.99,,,-99.99,,2013-02-27 00:21:00,
2013-02-26 17:31:00,37.0,5.0,30.05,North,10,10.0,18.0,25,-99.99,,,-99.99,,2013-02-27 00:31:00,
2013-02-26 17:41:00,36.0,2.0,30.07,NNE,28,13.0,18.0,23,-99.99,,,0.00,,2013-02-27 00:41:00,
2013-02-26 17:52:00,36.0,2.0,30.07,NNE,28,13.0,18.0,23,-99.99,,,0.00,,2013-02-27 00:52:00,
2013-02-26 18:01:00,36.0,3.0,30.08,North,360,12.0,20.0,24,-99.99,,,-99.99,,2013-02-27 01:01:00,
2013-02-26 18:11:00,35.0,2.0,30.10,North,355,10.0,20.0,24,-99.99,,,0.00,,2013-02-27 01:11:00,
2013-02-26 18:21:00,35.0,2.0,30.10,North,355,10.0,20.0,24,-99.99,,,0.00,,2013-02-27 01:21:00,
2013-02-26 18:31:00,34.0,2.0,30.11,North,355,5.0,15.0,25,-99.99,,,-99.99,,2013-02-27 01:31:00,
2013-02-26 18:41:00,33.0,1.0,30.13,NNE,22,10.0,15.0,25,-99.99,,,0.00,,2013-02-27 01:41:00,
2013-02-26 18:52:00,33.0,1.0,30.13,NNE,22,10.0,15.0,25,-99.99,,,0.00,,2013-02-27 01:52:00,
2013-02-26 19:01:00,32.0,1.0,30.15,North,355,5.0,14.0,26,-99.99,,,-99.99,,2013-02-27 02:01:00,
2013-02-26 19:13:00,32.0,1.0,30.16,North,355,4.0,14.0,26,-99.99,,,-99.99,,2013-02-27 02:13:00,
2013-02-26 19:22:00,32.0,1.0,30.16,North,355,4.0,14.0,26,-99.99,,,-99.99,,2013-02-27 02:22:00,
2013-02-26 19:32:00,31.0,1.0,30.17,North,355,3.0,5.0,28,-99.99,,,-99.99,,2013-02-27 02:32:00,
2013-02-26 19:42:00,30.0,1.0,30.19,North,355,3.0,5.0,29,-99.99,,,-99.99,,2013-02-27 02:42:00,
2013-02-26 19:52:00,30.0,1.0,30.19,North,355,3.0,5.0,29,-99.99,,,-99.99,,2013-02-27 02:52:00,
2013-02-26 20:01:00,29.0,2.0,30.15,North,355,2.0,4.0,31,-99.99,,,-99.99,,2013-02-27 03:01:00,
2013-02-26 20:11:00,28.0,3.0,30.17,North,355,3.0,4.0,33,-99.99,,,-99.99,,2013-02-27 03:11:00,
2013-02-26 20:21:00,28.0,3.0,30.17,North,355,3.0,4.0,33,-99.99,,,-99.99,,2013-02-27 03:21:00,
2013-02-26 20:31:00,26.0,5.0,30.19,North,355,4.0,5.0,40,-99.99,,,-99.99,,2013-02-27 03:31:00,
2013-02-26 20:41:00,27.0,3.0,30.19,North,355,4.0,7.0,35,-99.99,,,0.00,,2013-02-27 03:41:00,
2013-02-26 20:52:00,27.0,3.0,30.19,North,355,4.0,7.0,35,-99.99,,,0.00,,2013-02-27 03:52:00,
2013-02-26 21:01:00,27.0,3.0,30.14,North,355,4.0,7.0,35,-99.99,,,-99.99,,2013-02-27 04:01:00,
2013-02-26 21:11:00,27.0,2.0,30.15,North,355,2.0,7.0,34,-99.99,,,0.00,,2013-02-27 04:11:00,
2013-02-26 21:21:00,27.0,2.0,30.15,North,355,2.0,7.0,34,-99.99,,,0.00,,2013-02-27 04:21:00,
2013-02-26 21:31:00,27.0,2.0,30.15,North,355,2.0,4.0,33,-99.99,,,0.00,,2013-02-27 04:31:00,
2013-02-26 21:41:00,26.0,2.0,30.17,North,355,2.0,5.0,35,-99.99,,,0.00,,2013-02-27 04:41:00,
2013-02-26 21:52:00,26.0,2.0,30.17,North,355,2.0,5.0,35,-99.99,,,0.00,,2013-02-27 04:52:00,
2013-02-26 22:01:00,25.0,5.0,30.18,North,355,2.0,4.0,41,-99.99,,,0.00,,2013-02-27 05:01:00,
2013-02-26 22:11:00,25.0,2.0,30.20,North,355,2.0,4.0,37,-99.99,,,0.00,,2013-02-27 05:11:00,
2013-02-26 22:22:00,25.0,2.0,30.20,North,355,2.0,4.0,37,-99.99,,,0.00,,2013-02-27 05:22:00,
2013-02-26 22:32:00,25.0,1.0,30.19,North,355,4.0,6.0,35,-99.99,,,0.00,,2013-02-27 05:32:00,
2013-02-26 22:41:00,26.0,1.0,30.18,North,355,6.0,7.0,33,-99.99,,,0.00,,2013-02-27 05:41:00,
2013-02-26 22:52:00,26.0,1.0,30.18,North,355,6.0,7.0,33,-99.99,,,0.00,,2013-02-27 05:52:00,
2013-02-26 23:02:00,26.0,1.0,30.18,North,355,5.0,10.0,33,-99.99,,,0.00,,2013-02-27 06:02:00,
2013-02-26 23:11:00,26.0,0.0,30.19,North,355,5.0,10.0,32,-99.99,,,0.00,,2013-02-27 06:11:00,
2013-02-26 23:21:00,26.0,0.0,30.19,North,355,5.0,10.0,32,-99.99,,,0.00,,2013-02-27 06:21:00,
2013-02-26 23:32:00,25.0,1.0,30.21,North,355,4.0,10.0,35,-99.99,,,0.00,,2013-02-27 06:32:00,
2013-02-26 23:41:00,25.0,1.0,30.21,North,355,6.0,10.0,35,-99.99,,,0.00,,2013-02-27 06:41:00,
2013-02-26 23:52:00,25.0,1.0,30.21,North,355,6.0,10.0,35,-99.99,,,0.00,,2013-02-27 06:52:00,